sensor_id;sensor_type;location;lat;lon;timestamp;pressure;altitude;pressure_sealevel;temperature;humidity
36258;BME280;22294;52.044;4.582;2023-04-06T00:01:35;77525.81;;;-144.37;61.78
36258;BME280;22294;52.044;4.582;2023-04-06T00:04:00;77525.81;;;-144.37;61.52
36258;BME280;22294;52.044;4.582;2023-04-06T00:06:26;77517.63;;;-144.37;61.19
36258;BME280;22294;52.044;4.582;2023-04-06T00:08:51;77515.59;;;-144.37;61.17
36258;BME280;22294;52.044;4.582;2023-04-06T00:11:17;77515.59;;;-144.37;60.92
36258;BME280;22294;52.044;4.582;2023-04-06T00:13:42;77529.91;;;-144.37;60.66
36258;BME280;22294;52.044;4.582;2023-04-06T00:16:07;77517.63;;;-144.37;60.15
36258;BME280;22294;52.044;4.582;2023-04-06T00:18:32;77519.66;;;-144.37;60.67
36258;BME280;22294;52.044;4.582;2023-04-06T00:20:58;77511.50;;;-144.37;60.27
36258;BME280;22294;52.044;4.582;2023-04-06T00:23:23;77517.63;;;-144.37;60.16
36258;BME280;22294;52.044;4.582;2023-04-06T00:25:48;77519.66;;;-144.37;60.15
36258;BME280;22294;52.044;4.582;2023-04-06T00:28:13;77517.63;;;-144.37;60.13
36258;BME280;22294;52.044;4.582;2023-04-06T00:30:39;77515.59;;;-144.37;59.70
36258;BME280;22294;52.044;4.582;2023-04-06T00:33:05;77519.66;;;-144.37;60.52
36258;BME280;22294;52.044;4.582;2023-04-06T00:35:30;77525.81;;;-144.37;60.09
36258;BME280;22294;52.044;4.582;2023-04-06T00:37:55;77542.19;;;-144.37;60.14
36258;BME280;22294;52.044;4.582;2023-04-06T00:40:20;77538.09;;;-144.37;60.49
36258;BME280;22294;52.044;4.582;2023-04-06T00:42:46;77534.00;;;-144.37;60.78
36258;BME280;22294;52.044;4.582;2023-04-06T00:45:11;77536.03;;;-144.37;60.71
36258;BME280;22294;52.044;4.582;2023-04-06T00:47:36;77538.09;;;-144.37;60.78
36258;BME280;22294;52.044;4.582;2023-04-06T00:50:02;77540.13;;;-144.37;60.91
36258;BME280;22294;52.044;4.582;2023-04-06T00:52:27;77538.09;;;-144.37;61.16
36258;BME280;22294;52.044;4.582;2023-04-06T00:54:52;77538.09;;;-144.37;61.32
36258;BME280;22294;52.044;4.582;2023-04-06T00:57:17;77538.09;;;-144.37;61.51
36258;BME280;22294;52.044;4.582;2023-04-06T00:59:43;77540.13;;;-144.37;60.96
36258;BME280;22294;52.044;4.582;2023-04-06T01:02:08;77540.13;;;-144.37;61.51
36258;BME280;22294;52.044;4.582;2023-04-06T01:04:34;77546.28;;;-144.37;60.52
36258;BME280;22294;52.044;4.582;2023-04-06T01:06:59;77544.22;;;-144.37;61.10
36258;BME280;22294;52.044;4.582;2023-04-06T01:09:24;77536.03;;;-144.37;61.10
36258;BME280;22294;52.044;4.582;2023-04-06T01:11:52;77536.03;;;-144.37;60.54
36258;BME280;22294;52.044;4.582;2023-04-06T01:14:17;77534.00;;;-144.37;60.46
36258;BME280;22294;52.044;4.582;2023-04-06T01:16:42;77525.81;;;-144.37;60.82
36258;BME280;22294;52.044;4.582;2023-04-06T01:19:10;77517.63;;;-144.37;60.82
36258;BME280;22294;52.044;4.582;2023-04-06T01:21:36;77517.63;;;-144.37;60.96
36258;BME280;22294;52.044;4.582;2023-04-06T01:24:02;77517.63;;;-144.37;60.90
36258;BME280;22294;52.044;4.582;2023-04-06T01:26:27;77509.44;;;-144.37;60.52
36258;BME280;22294;52.044;4.582;2023-04-06T01:28:54;77509.44;;;-144.37;61.07
36258;BME280;22294;52.044;4.582;2023-04-06T01:31:19;77503.31;;;-144.37;60.58
36258;BME280;22294;52.044;4.582;2023-04-06T01:33:44;77511.50;;;-144.37;60.70
36258;BME280;22294;52.044;4.582;2023-04-06T01:36:10;77509.44;;;-144.37;60.52
36258;BME280;22294;52.044;4.582;2023-04-06T01:38:35;77505.34;;;-144.37;60.76
36258;BME280;22294;52.044;4.582;2023-04-06T01:41:00;77501.25;;;-144.37;61.04
36258;BME280;22294;52.044;4.582;2023-04-06T01:43:25;77493.06;;;-144.37;60.66
36258;BME280;22294;52.044;4.582;2023-04-06T01:45:51;77491.03;;;-144.37;60.89
36258;BME280;22294;52.044;4.582;2023-04-06T01:48:16;77489.00;;;-144.37;60.81
36258;BME280;22294;52.044;4.582;2023-04-06T01:50:41;77480.81;;;-144.37;60.84
36258;BME280;22294;52.044;4.582;2023-04-06T01:53:06;77486.94;;;-144.37;60.77
36258;BME280;22294;52.044;4.582;2023-04-06T01:55:32;77495.13;;;-144.37;60.72
36258;BME280;22294;52.044;4.582;2023-04-06T01:57:57;77495.13;;;-144.37;61.17
36258;BME280;22294;52.044;4.582;2023-04-06T02:00:22;77497.16;;;-144.37;61.56
36258;BME280;22294;52.044;4.582;2023-04-06T02:02:47;77489.00;;;-144.37;61.58
36258;BME280;22294;52.044;4.582;2023-04-06T02:05:12;77489.00;;;-144.37;62.08
36258;BME280;22294;52.044;4.582;2023-04-06T02:07:38;77486.94;;;-144.37;61.57
36258;BME280;22294;52.044;4.582;2023-04-06T02:10:03;77480.81;;;-144.37;61.87
36258;BME280;22294;52.044;4.582;2023-04-06T02:12:28;77474.66;;;-144.37;61.66
36258;BME280;22294;52.044;4.582;2023-04-06T02:14:54;77480.81;;;-144.37;61.80
36258;BME280;22294;52.044;4.582;2023-04-06T02:17:19;77480.81;;;-144.37;62.12
36258;BME280;22294;52.044;4.582;2023-04-06T02:19:44;77472.63;;;-144.37;62.33
36258;BME280;22294;52.044;4.582;2023-04-06T02:22:09;77472.63;;;-144.37;62.52
36258;BME280;22294;52.044;4.582;2023-04-06T02:24:34;77458.28;;;-144.37;62.12
36258;BME280;22294;52.044;4.582;2023-04-06T02:27:00;77462.38;;;-144.37;61.73
36258;BME280;22294;52.044;4.582;2023-04-06T02:29:25;77470.56;;;-144.37;62.18
36258;BME280;22294;52.044;4.582;2023-04-06T02:31:51;77460.34;;;-144.37;62.39
36258;BME280;22294;52.044;4.582;2023-04-06T02:34:16;77462.38;;;-144.37;62.65
36258;BME280;22294;52.044;4.582;2023-04-06T02:36:44;77462.38;;;-144.37;62.61
36258;BME280;22294;52.044;4.582;2023-04-06T02:39:10;77464.44;;;-144.37;63.07
36258;BME280;22294;52.044;4.582;2023-04-06T02:41:35;77460.34;;;-144.37;62.98
36258;BME280;22294;52.044;4.582;2023-04-06T02:44:00;77458.28;;;-144.37;62.84
36258;BME280;22294;52.044;4.582;2023-04-06T02:46:25;77458.28;;;-144.37;62.91
36258;BME280;22294;52.044;4.582;2023-04-06T02:48:51;77464.44;;;-144.37;63.13
36258;BME280;22294;52.044;4.582;2023-04-06T02:51:16;77460.34;;;-144.37;63.36
36258;BME280;22294;52.044;4.582;2023-04-06T02:53:41;77460.34;;;-144.37;63.43
36258;BME280;22294;52.044;4.582;2023-04-06T02:56:06;77462.38;;;-144.37;63.89
36258;BME280;22294;52.044;4.582;2023-04-06T02:58:31;77466.47;;;-144.37;63.94
36258;BME280;22294;52.044;4.582;2023-04-06T03:00:57;77458.28;;;-144.37;64.12
36258;BME280;22294;52.044;4.582;2023-04-06T03:03:22;77456.25;;;-144.37;63.91
36258;BME280;22294;52.044;4.582;2023-04-06T03:05:48;77443.97;;;-144.37;64.28
36258;BME280;22294;52.044;4.582;2023-04-06T03:08:13;77448.06;;;-144.37;64.52
36258;BME280;22294;52.044;4.582;2023-04-06T03:10:38;77452.16;;;-144.37;64.55
36258;BME280;22294;52.044;4.582;2023-04-06T03:13:03;77450.13;;;-144.37;64.70
36258;BME280;22294;52.044;4.582;2023-04-06T03:15:28;77456.25;;;-144.37;64.74
36258;BME280;22294;52.044;4.582;2023-04-06T03:17:54;77462.38;;;-144.37;64.55
36258;BME280;22294;52.044;4.582;2023-04-06T03:20:19;77452.16;;;-144.37;65.07
36258;BME280;22294;52.044;4.582;2023-04-06T03:22:45;77450.13;;;-144.37;65.13
36258;BME280;22294;52.044;4.582;2023-04-06T03:25:10;77443.97;;;-144.37;65.21
36258;BME280;22294;52.044;4.582;2023-04-06T03:27:35;77448.06;;;-144.37;65.13
36258;BME280;22294;52.044;4.582;2023-04-06T03:30:01;77441.94;;;-144.37;65.70
36258;BME280;22294;52.044;4.582;2023-04-06T03:32:26;77443.97;;;-144.37;66.24
36258;BME280;22294;52.044;4.582;2023-04-06T03:34:51;77437.84;;;-144.37;66.52
36258;BME280;22294;52.044;4.582;2023-04-06T03:37:16;77446.03;;;-144.37;66.74
36258;BME280;22294;52.044;4.582;2023-04-06T03:39:41;77446.03;;;-144.37;66.88
36258;BME280;22294;52.044;4.582;2023-04-06T03:42:07;77439.88;;;-144.37;67.31
36258;BME280;22294;52.044;4.582;2023-04-06T03:44:32;77441.94;;;-144.37;67.89
36258;BME280;22294;52.044;4.582;2023-04-06T03:46:57;77439.88;;;-144.37;68.35
36258;BME280;22294;52.044;4.582;2023-04-06T03:49:22;77441.94;;;-144.37;68.37
36258;BME280;22294;52.044;4.582;2023-04-06T03:51:47;77441.94;;;-144.37;68.65
36258;BME280;22294;52.044;4.582;2023-04-06T03:54:13;77443.97;;;-144.37;68.95
36258;BME280;22294;52.044;4.582;2023-04-06T03:56:38;77439.88;;;-144.37;68.96
36258;BME280;22294;52.044;4.582;2023-04-06T03:59:03;77441.94;;;-144.37;69.51
36258;BME280;22294;52.044;4.582;2023-04-06T04:01:29;77446.03;;;-144.37;69.92
36258;BME280;22294;52.044;4.582;2023-04-06T04:03:54;77450.13;;;-144.37;70.31
36258;BME280;22294;52.044;4.582;2023-04-06T04:06:19;77437.84;;;-144.37;70.03
36258;BME280;22294;52.044;4.582;2023-04-06T04:08:44;77429.66;;;-144.37;70.28
36258;BME280;22294;52.044;4.582;2023-04-06T04:11:10;77437.84;;;-144.37;70.68
36258;BME280;22294;52.044;4.582;2023-04-06T04:13:35;77437.84;;;-144.37;70.79
36258;BME280;22294;52.044;4.582;2023-04-06T04:16:00;77437.84;;;-144.37;70.72
36258;BME280;22294;52.044;4.582;2023-04-06T04:18:25;77433.75;;;-144.37;70.94
36258;BME280;22294;52.044;4.582;2023-04-06T04:20:50;77427.63;;;-144.37;71.17
36258;BME280;22294;52.044;4.582;2023-04-06T04:23:16;77431.69;;;-144.37;71.01
36258;BME280;22294;52.044;4.582;2023-04-06T04:25:43;77427.63;;;-144.37;71.22
36258;BME280;22294;52.044;4.582;2023-04-06T04:28:08;77421.47;;;-144.37;71.10
36258;BME280;22294;52.044;4.582;2023-04-06T04:30:33;77421.47;;;-144.37;71.34
36258;BME280;22294;52.044;4.582;2023-04-06T04:32:58;77427.63;;;-144.37;71.59
36258;BME280;22294;52.044;4.582;2023-04-06T04:35:24;77427.63;;;-144.37;71.52
36258;BME280;22294;52.044;4.582;2023-04-06T04:37:49;77415.34;;;-144.37;71.41
36258;BME280;22294;52.044;4.582;2023-04-06T04:40:14;77415.34;;;-144.37;71.38
36258;BME280;22294;52.044;4.582;2023-04-06T04:42:40;77417.38;;;-144.37;71.08
36258;BME280;22294;52.044;4.582;2023-04-06T04:45:06;77413.28;;;-144.37;71.38
36258;BME280;22294;52.044;4.582;2023-04-06T04:47:31;77417.38;;;-144.37;71.50
36258;BME280;22294;52.044;4.582;2023-04-06T04:49:56;77407.16;;;-144.37;71.65
36258;BME280;22294;52.044;4.582;2023-04-06T04:52:21;77401.00;;;-144.37;71.71
36258;BME280;22294;52.044;4.582;2023-04-06T04:54:47;77396.94;;;-144.37;71.72
36258;BME280;22294;52.044;4.582;2023-04-06T04:57:12;77392.84;;;-144.37;71.76
36258;BME280;22294;52.044;4.582;2023-04-06T04:59:38;77388.75;;;-144.37;72.07
36258;BME280;22294;52.044;4.582;2023-04-06T05:02:03;77390.78;;;-144.37;72.74
36258;BME280;22294;52.044;4.582;2023-04-06T05:04:28;77382.59;;;-144.37;72.73
36258;BME280;22294;52.044;4.582;2023-04-06T05:07:06;77378.50;;;-144.37;72.67
36258;BME280;22294;52.044;4.582;2023-04-06T05:09:32;77376.47;;;-144.37;72.28
36258;BME280;22294;52.044;4.582;2023-04-06T05:11:58;77362.16;;;-144.37;71.70
36258;BME280;22294;52.044;4.582;2023-04-06T05:14:25;77358.06;;;-144.37;71.24
36258;BME280;22294;52.044;4.582;2023-04-06T05:16:50;77347.81;;;-144.37;71.00
36258;BME280;22294;52.044;4.582;2023-04-06T05:19:15;77341.69;;;-144.37;70.74
36258;BME280;22294;52.044;4.582;2023-04-06T05:21:41;77335.56;;;-144.37;70.21
36258;BME280;22294;52.044;4.582;2023-04-06T05:24:06;77337.59;;;-144.37;69.79
36258;BME280;22294;52.044;4.582;2023-04-06T05:26:31;77339.66;;;-144.37;69.63
36258;BME280;22294;52.044;4.582;2023-04-06T05:28:57;77327.38;;;-144.37;69.81
36258;BME280;22294;52.044;4.582;2023-04-06T05:31:22;77327.38;;;-144.37;69.81
36258;BME280;22294;52.044;4.582;2023-04-06T05:33:47;77323.28;;;-144.37;69.98
36258;BME280;22294;52.044;4.582;2023-04-06T05:36:12;77315.09;;;-144.37;69.94
36258;BME280;22294;52.044;4.582;2023-04-06T05:38:38;77304.88;;;-144.37;69.22
36258;BME280;22294;52.044;4.582;2023-04-06T05:41:03;77300.78;;;-144.37;69.04
36258;BME280;22294;52.044;4.582;2023-04-06T05:43:28;77298.72;;;-144.37;69.33
36258;BME280;22294;52.044;4.582;2023-04-06T05:45:53;77290.53;;;-144.37;69.34
36258;BME280;22294;52.044;4.582;2023-04-06T05:48:18;77288.50;;;-144.37;69.35
36258;BME280;22294;52.044;4.582;2023-04-06T05:50:47;77288.50;;;-144.37;69.56
36258;BME280;22294;52.044;4.582;2023-04-06T05:53:13;77288.50;;;-144.37;70.16
36258;BME280;22294;52.044;4.582;2023-04-06T05:55:38;77282.38;;;-144.37;69.93
36258;BME280;22294;52.044;4.582;2023-04-06T05:58:03;77278.28;;;-144.37;70.23
36258;BME280;22294;52.044;4.582;2023-04-06T06:00:28;77280.31;;;-144.37;70.31
36258;BME280;22294;52.044;4.582;2023-04-06T06:02:53;77274.19;;;-144.37;70.26
36258;BME280;22294;52.044;4.582;2023-04-06T06:05:19;77278.28;;;-144.37;70.31
36258;BME280;22294;52.044;4.582;2023-04-06T06:07:44;77272.13;;;-144.37;70.72
36258;BME280;22294;52.044;4.582;2023-04-06T06:10:09;77268.03;;;-144.37;70.65
36258;BME280;22294;52.044;4.582;2023-04-06T06:12:35;77272.13;;;-144.37;71.22
36258;BME280;22294;52.044;4.582;2023-04-06T06:15:00;77268.03;;;-144.37;71.22
36258;BME280;22294;52.044;4.582;2023-04-06T06:17:25;77263.94;;;-144.37;71.19
36258;BME280;22294;52.044;4.582;2023-04-06T06:19:50;77259.84;;;-144.37;71.38
36258;BME280;22294;52.044;4.582;2023-04-06T06:22:16;77245.53;;;-144.37;71.95
36258;BME280;22294;52.044;4.582;2023-04-06T06:24:41;77245.53;;;-144.37;71.50
36258;BME280;22294;52.044;4.582;2023-04-06T06:27:06;77245.53;;;-144.37;71.47
36258;BME280;22294;52.044;4.582;2023-04-06T06:29:32;77235.31;;;-144.37;71.26
36258;BME280;22294;52.044;4.582;2023-04-06T06:31:58;77235.31;;;-144.37;71.15
36258;BME280;22294;52.044;4.582;2023-04-06T06:34:23;77235.31;;;-144.37;71.33
36258;BME280;22294;52.044;4.582;2023-04-06T06:36:48;77233.25;;;-144.37;71.65
36258;BME280;22294;52.044;4.582;2023-04-06T06:39:13;77229.19;;;-144.37;72.38
36258;BME280;22294;52.044;4.582;2023-04-06T06:41:38;77225.09;;;-144.37;72.32
36258;BME280;22294;52.044;4.582;2023-04-06T06:44:04;77221.00;;;-144.37;73.07
36258;BME280;22294;52.044;4.582;2023-04-06T06:46:29;77212.81;;;-144.37;72.89
36258;BME280;22294;52.044;4.582;2023-04-06T06:48:54;77196.44;;;-144.37;72.55
36258;BME280;22294;52.044;4.582;2023-04-06T06:51:20;77194.41;;;-144.37;72.68
36258;BME280;22294;52.044;4.582;2023-04-06T06:53:45;77198.50;;;-144.37;73.09
36258;BME280;22294;52.044;4.582;2023-04-06T06:56:10;77178.03;;;-144.37;72.98
36258;BME280;22294;52.044;4.582;2023-04-06T06:58:35;77173.94;;;-144.37;72.71
36258;BME280;22294;52.044;4.582;2023-04-06T07:01:01;77163.72;;;-144.37;72.74
36258;BME280;22294;52.044;4.582;2023-04-06T07:03:26;77159.63;;;-144.37;72.89
36258;BME280;22294;52.044;4.582;2023-04-06T07:05:51;77151.44;;;-144.37;73.73
36258;BME280;22294;52.044;4.582;2023-04-06T07:08:20;77141.22;;;-144.37;74.36
36258;BME280;22294;52.044;4.582;2023-04-06T07:10:45;77139.16;;;-144.37;74.43
36258;BME280;22294;52.044;4.582;2023-04-06T07:13:10;77139.16;;;-144.37;74.68
36258;BME280;22294;52.044;4.582;2023-04-06T07:15:36;77141.22;;;-144.37;75.03
36258;BME280;22294;52.044;4.582;2023-04-06T07:18:02;77135.06;;;-144.37;75.22
36258;BME280;22294;52.044;4.582;2023-04-06T07:20:27;77130.97;;;-144.37;75.15
36258;BME280;22294;52.044;4.582;2023-04-06T07:22:54;77122.81;;;-144.37;74.79
36258;BME280;22294;52.044;4.582;2023-04-06T07:25:19;77110.53;;;-144.37;74.05
36258;BME280;22294;52.044;4.582;2023-04-06T07:27:45;77090.06;;;-144.37;73.51
36258;BME280;22294;52.044;4.582;2023-04-06T07:30:10;77085.97;;;-144.37;74.28
36258;BME280;22294;52.044;4.582;2023-04-06T07:32:36;77085.97;;;-144.37;74.06
36258;BME280;22294;52.044;4.582;2023-04-06T07:35:01;77069.63;;;-144.37;73.52
36258;BME280;22294;52.044;4.582;2023-04-06T07:37:26;77059.38;;;-144.37;73.95
36258;BME280;22294;52.044;4.582;2023-04-06T07:39:52;77057.34;;;-144.37;73.71
36258;BME280;22294;52.044;4.582;2023-04-06T07:42:17;77051.19;;;-144.37;73.73
36258;BME280;22294;52.044;4.582;2023-04-06T07:44:42;77049.16;;;-144.37;73.73
36258;BME280;22294;52.044;4.582;2023-04-06T07:47:07;77045.06;;;-144.37;74.11
36258;BME280;22294;52.044;4.582;2023-04-06T07:49:32;77036.88;;;-144.37;74.08
36258;BME280;22294;52.044;4.582;2023-04-06T07:51:58;77028.69;;;-144.37;74.15
36258;BME280;22294;52.044;4.582;2023-04-06T07:54:23;77026.66;;;-144.37;74.38
36258;BME280;22294;52.044;4.582;2023-04-06T07:56:48;77028.69;;;-144.37;74.73
36258;BME280;22294;52.044;4.582;2023-04-06T07:59:13;77020.50;;;-144.37;74.74
36258;BME280;22294;52.044;4.582;2023-04-06T08:01:38;77012.34;;;-144.37;75.95
36258;BME280;22294;52.044;4.582;2023-04-06T08:04:04;77010.28;;;-144.37;75.46
36258;BME280;22294;52.044;4.582;2023-04-06T08:06:29;77010.28;;;-144.37;76.45
36258;BME280;22294;52.044;4.582;2023-04-06T08:08:55;77004.16;;;-144.37;76.39
36258;BME280;22294;52.044;4.582;2023-04-06T08:11:20;77010.28;;;-144.37;77.66
36258;BME280;22294;52.044;4.582;2023-04-06T08:13:46;77004.16;;;-144.37;76.99
36258;BME280;22294;52.044;4.582;2023-04-06T08:16:11;77014.38;;;-144.37;79.54
36258;BME280;22294;52.044;4.582;2023-04-06T08:18:36;77010.28;;;-144.37;80.99
36258;BME280;22294;52.044;4.582;2023-04-06T08:21:01;77010.28;;;-144.37;82.85
36258;BME280;22294;52.044;4.582;2023-04-06T08:23:27;77008.25;;;-144.37;83.43
36258;BME280;22294;52.044;4.582;2023-04-06T08:25:52;77006.19;;;-144.37;84.99
36258;BME280;22294;52.044;4.582;2023-04-06T08:28:19;76998.00;;;-144.37;86.52
36258;BME280;22294;52.044;4.582;2023-04-06T08:30:44;76998.00;;;-144.37;87.25
36258;BME280;22294;52.044;4.582;2023-04-06T08:33:09;77004.16;;;-144.37;87.22
36258;BME280;22294;52.044;4.582;2023-04-06T08:35:35;76995.97;;;-144.37;87.68
36258;BME280;22294;52.044;4.582;2023-04-06T08:38:00;76998.00;;;-144.37;87.95
36258;BME280;22294;52.044;4.582;2023-04-06T08:40:26;77010.28;;;-144.37;87.40
36258;BME280;22294;52.044;4.582;2023-04-06T08:42:54;76998.00;;;-144.37;87.48
36258;BME280;22294;52.044;4.582;2023-04-06T08:45:19;77014.38;;;-144.37;88.16
36258;BME280;22294;52.044;4.582;2023-04-06T08:47:46;77002.09;;;-144.37;88.22
36258;BME280;22294;52.044;4.582;2023-04-06T08:50:11;77004.16;;;-144.37;88.46
36258;BME280;22294;52.044;4.582;2023-04-06T08:52:37;76989.84;;;-144.37;88.15
36258;BME280;22294;52.044;4.582;2023-04-06T08:55:03;76979.59;;;-144.37;87.72
36258;BME280;22294;52.044;4.582;2023-04-06T08:57:28;76973.47;;;-144.37;87.99
36258;BME280;22294;52.044;4.582;2023-04-06T08:59:53;76963.25;;;-144.37;87.32
36258;BME280;22294;52.044;4.582;2023-04-06T09:02:20;76963.25;;;-144.37;86.46
36258;BME280;22294;52.044;4.582;2023-04-06T09:04:45;76965.28;;;-144.37;86.14
36258;BME280;22294;52.044;4.582;2023-04-06T09:07:12;76967.34;;;-144.37;85.67
36258;BME280;22294;52.044;4.582;2023-04-06T09:09:37;76957.09;;;-144.37;85.94
36258;BME280;22294;52.044;4.582;2023-04-06T09:12:08;76955.06;;;-144.37;85.89
36258;BME280;22294;52.044;4.582;2023-04-06T09:14:37;76953.00;;;-144.37;86.77
36258;BME280;22294;52.044;4.582;2023-04-06T09:17:03;76950.97;;;-144.37;88.05
36258;BME280;22294;52.044;4.582;2023-04-06T09:19:28;76950.97;;;-144.37;87.37
36258;BME280;22294;52.044;4.582;2023-04-06T09:22:03;76959.16;;;-144.37;85.23
36258;BME280;22294;52.044;4.582;2023-04-06T09:24:38;76963.25;;;-144.37;85.62
36258;BME280;22294;52.044;4.582;2023-04-06T09:27:04;76965.28;;;-144.37;87.18
36258;BME280;22294;52.044;4.582;2023-04-06T09:29:29;76959.16;;;-144.37;87.33
36258;BME280;22294;52.044;4.582;2023-04-06T09:32:04;76967.34;;;-144.37;87.75
36258;BME280;22294;52.044;4.582;2023-04-06T09:34:30;76948.91;;;-144.37;88.59
36258;BME280;22294;52.044;4.582;2023-04-06T09:36:55;76961.19;;;-144.37;90.43
36258;BME280;22294;52.044;4.582;2023-04-06T09:39:21;76967.34;;;-144.37;90.81
36258;BME280;22294;52.044;4.582;2023-04-06T09:41:49;76961.19;;;-144.37;91.76
36258;BME280;22294;52.044;4.582;2023-04-06T09:44:15;76963.25;;;-144.37;91.84
36258;BME280;22294;52.044;4.582;2023-04-06T09:46:41;76961.19;;;-144.37;92.26
36258;BME280;22294;52.044;4.582;2023-04-06T09:49:07;76955.06;;;-144.37;92.88
36258;BME280;22294;52.044;4.582;2023-04-06T09:51:36;76957.09;;;-144.37;94.47
36258;BME280;22294;52.044;4.582;2023-04-06T09:54:02;76955.06;;;-144.37;94.47
36258;BME280;22294;52.044;4.582;2023-04-06T10:02:06;76967.34;;;-144.37;98.14
36258;BME280;22294;52.044;4.582;2023-04-06T10:04:38;76957.09;;;-144.37;99.02
36258;BME280;22294;52.044;4.582;2023-04-06T10:07:06;76957.09;;;-144.37;100.00
36258;BME280;22294;52.044;4.582;2023-04-06T10:09:32;76961.19;;;-144.37;100.00
36258;BME280;22294;52.044;4.582;2023-04-06T10:12:04;76969.38;;;-144.37;99.50
36258;BME280;22294;52.044;4.582;2023-04-06T10:14:31;76965.28;;;-144.37;100.00
36258;BME280;22294;52.044;4.582;2023-04-06T10:16:56;76971.44;;;-144.37;100.00
36258;BME280;22294;52.044;4.582;2023-04-06T10:19:24;76969.38;;;-144.37;100.00
36258;BME280;22294;52.044;4.582;2023-04-06T10:21:53;76975.50;;;-144.37;100.00
36258;BME280;22294;52.044;4.582;2023-04-06T10:24:19;76969.38;;;-144.37;100.00
36258;BME280;22294;52.044;4.582;2023-04-06T10:26:56;76969.38;;;-144.37;100.00
36258;BME280;22294;52.044;4.582;2023-04-06T10:29:22;76969.38;;;-144.37;100.00
36258;BME280;22294;52.044;4.582;2023-04-06T10:31:48;76963.25;;;-144.37;100.00
36258;BME280;22294;52.044;4.582;2023-04-06T10:34:13;76963.25;;;-144.37;100.00
36258;BME280;22294;52.044;4.582;2023-04-06T10:36:39;76959.16;;;-144.37;100.00
36258;BME280;22294;52.044;4.582;2023-04-06T10:39:05;76961.19;;;-144.37;100.00
36258;BME280;22294;52.044;4.582;2023-04-06T10:43:59;76961.19;;;-144.37;100.00
36258;BME280;22294;52.044;4.582;2023-04-06T10:46:26;76955.06;;;-144.37;100.00
36258;BME280;22294;52.044;4.582;2023-04-06T10:48:52;76957.09;;;-144.37;100.00
36258;BME280;22294;52.044;4.582;2023-04-06T10:51:17;76957.09;;;-144.37;100.00
36258;BME280;22294;52.044;4.582;2023-04-06T10:53:46;76942.78;;;-144.37;100.00
36258;BME280;22294;52.044;4.582;2023-04-06T10:56:16;76938.69;;;-144.37;100.00
36258;BME280;22294;52.044;4.582;2023-04-06T10:58:45;76936.66;;;-144.37;100.00
36258;BME280;22294;52.044;4.582;2023-04-06T11:01:11;76934.59;;;-144.37;100.00
36258;BME280;22294;52.044;4.582;2023-04-06T11:03:47;76930.50;;;-144.37;100.00
36258;BME280;22294;52.044;4.582;2023-04-06T11:06:22;76932.56;;;-144.37;100.00
36258;BME280;22294;52.044;4.582;2023-04-06T11:08:48;76940.75;;;-144.37;100.00
36258;BME280;22294;52.044;4.582;2023-04-06T11:11:15;76942.78;;;-144.37;100.00
36258;BME280;22294;52.044;4.582;2023-04-06T11:13:41;76940.75;;;-144.37;100.00
36258;BME280;22294;52.044;4.582;2023-04-06T11:16:11;76948.91;;;-144.37;100.00
36258;BME280;22294;52.044;4.582;2023-04-06T11:18:37;76934.59;;;-144.37;100.00
36258;BME280;22294;52.044;4.582;2023-04-06T11:21:02;76926.41;;;-144.37;100.00
36258;BME280;22294;52.044;4.582;2023-04-06T11:23:27;76920.28;;;-144.37;100.00
36258;BME280;22294;52.044;4.582;2023-04-06T11:25:53;76930.50;;;-144.37;100.00
36258;BME280;22294;52.044;4.582;2023-04-06T11:28:19;76924.38;;;-144.37;100.00
36258;BME280;22294;52.044;4.582;2023-04-06T11:30:45;76928.47;;;-144.37;100.00
36258;BME280;22294;52.044;4.582;2023-04-06T11:33:10;76940.75;;;-144.37;100.00
36258;BME280;22294;52.044;4.582;2023-04-06T11:35:35;76930.50;;;-144.37;100.00
36258;BME280;22294;52.044;4.582;2023-04-06T11:38:04;76936.66;;;-144.37;100.00
36258;BME280;22294;52.044;4.582;2023-04-06T11:40:30;76926.41;;;-144.37;100.00
36258;BME280;22294;52.044;4.582;2023-04-06T11:42:58;76910.06;;;-144.37;100.00
36258;BME280;22294;52.044;4.582;2023-04-06T11:45:23;76908.00;;;-144.37;100.00
36258;BME280;22294;52.044;4.582;2023-04-06T11:47:55;76899.81;;;-144.37;100.00
36258;BME280;22294;52.044;4.582;2023-04-06T11:50:20;76897.78;;;-144.37;100.00
36258;BME280;22294;52.044;4.582;2023-04-06T11:52:45;76889.59;;;-144.37;100.00
36258;BME280;22294;52.044;4.582;2023-04-06T11:57:36;76879.38;;;-144.37;100.00
36258;BME280;22294;52.044;4.582;2023-04-06T12:00:02;76887.56;;;-144.37;100.00
36258;BME280;22294;52.044;4.582;2023-04-06T12:02:28;76889.59;;;-144.37;100.00
36258;BME280;22294;52.044;4.582;2023-04-06T12:04:53;76889.59;;;-144.37;100.00
36258;BME280;22294;52.044;4.582;2023-04-06T12:07:19;76879.38;;;-144.37;100.00
36258;BME280;22294;52.044;4.582;2023-04-06T12:09:44;76873.25;;;-144.37;100.00
36258;BME280;22294;52.044;4.582;2023-04-06T12:12:09;76877.31;;;-144.37;100.00
36258;BME280;22294;52.044;4.582;2023-04-06T12:14:35;76873.25;;;-144.37;100.00
36258;BME280;22294;52.044;4.582;2023-04-06T12:17:00;76883.47;;;-144.37;100.00
36258;BME280;22294;52.044;4.582;2023-04-06T12:19:25;76889.59;;;-144.37;100.00
36258;BME280;22294;52.044;4.582;2023-04-06T12:21:53;76887.56;;;-144.37;100.00
36258;BME280;22294;52.044;4.582;2023-04-06T12:24:19;76889.59;;;-144.37;100.00
36258;BME280;22294;52.044;4.582;2023-04-06T12:26:44;76889.59;;;-144.37;100.00
36258;BME280;22294;52.044;4.582;2023-04-06T12:29:10;76881.41;;;-144.37;100.00
36258;BME280;22294;52.044;4.582;2023-04-06T12:31:36;76879.38;;;-144.37;100.00
36258;BME280;22294;52.044;4.582;2023-04-06T12:34:01;76879.38;;;-144.37;100.00
36258;BME280;22294;52.044;4.582;2023-04-06T12:36:28;76867.09;;;-144.37;100.00
36258;BME280;22294;52.044;4.582;2023-04-06T12:38:53;76869.16;;;-144.37;100.00
36258;BME280;22294;52.044;4.582;2023-04-06T12:41:18;76869.16;;;-144.37;100.00